createdAt,value
2022-11-20T00:00:13.472Z,97987.94
2022-11-20T00:02:39.988Z,97985.81
2022-11-20T00:05:06.981Z,97978.63
2022-11-20T00:07:33.496Z,97980.22
2022-11-20T00:09:59.990Z,97979.44
2022-11-20T00:12:26.450Z,97982.09
2022-11-20T00:14:52.909Z,97983.97
2022-11-20T00:17:19.378Z,97978.63
2022-11-20T00:19:45.862Z,97981.56
2022-11-20T00:22:12.362Z,97976.78
2022-11-20T00:24:42.865Z,97973.31
2022-11-20T00:27:09.725Z,97977.34
2022-11-20T00:29:36.181Z,97974.09
2022-11-20T00:32:02.662Z,97979.44
2022-11-20T00:34:29.122Z,97977.84
2022-11-20T00:36:55.602Z,97976.53
2022-11-20T00:39:22.362Z,97974.69
2022-11-20T00:41:49.117Z,97970.66
2022-11-20T00:44:15.569Z,97966.13
2022-11-20T00:46:42.218Z,97970.94
2022-11-20T00:49:08.677Z,97972.78
2022-11-20T00:51:35.155Z,97971.16
2022-11-20T00:54:02.991Z,97958.41
2022-11-20T00:56:29.739Z,97951.75
2022-11-20T00:58:56.286Z,97950.16
2022-11-20T01:01:27.589Z,97953.63
2022-11-20T01:03:55.284Z,97960.00
2022-11-20T01:06:25.374Z,97953.91
2022-11-20T01:08:52.260Z,97959.47
2022-11-20T01:11:20.613Z,97962.13
2022-11-20T01:13:47.772Z,97955.22
2022-11-20T01:16:24.675Z,97953.88
2022-11-20T01:18:52.305Z,97946.94
2022-11-20T01:21:19.599Z,97946.69
2022-11-20T01:23:46.277Z,97950.44
2022-11-20T01:26:18.161Z,97949.88
2022-11-20T01:28:44.685Z,97950.41
2022-11-20T01:31:13.242Z,97944.56
2022-11-20T01:33:40.252Z,97935.22
2022-11-20T01:36:07.274Z,97940.31
2022-11-20T01:38:33.810Z,97946.94
2022-11-20T01:41:00.297Z,97944.56
2022-11-20T01:43:27.098Z,97936.84
2022-11-20T01:46:05.626Z,97940.59
2022-11-20T01:48:42.017Z,97935.00
2022-11-20T01:51:14.270Z,97930.97
2022-11-20T01:53:40.717Z,97935.78
2022-11-20T01:56:09.442Z,97924.59
2022-11-20T01:58:37.212Z,97929.38
2022-11-20T02:01:04.447Z,97926.44
2022-11-20T02:03:30.993Z,97921.69
2022-11-20T02:06:32.867Z,97922.97
2022-11-20T02:08:59.322Z,97915.00
2022-11-20T02:11:25.804Z,97923.50
2022-11-20T02:13:52.266Z,97921.91
2022-11-20T02:16:26.479Z,97923.75
2022-11-20T02:18:55.321Z,97926.41
2022-11-20T02:21:39.512Z,97920.03
2022-11-20T02:24:05.988Z,97925.88
2022-11-20T02:26:34.973Z,97924.81
2022-11-20T02:29:01.783Z,97920.53
2022-11-20T02:31:28.290Z,97919.50
2022-11-20T02:33:58.244Z,97910.97
2022-11-20T02:36:25.406Z,97907.78
2022-11-20T02:38:51.909Z,97909.88
2022-11-20T02:41:18.365Z,97904.28
2022-11-20T02:43:44.837Z,97898.72
2022-11-20T02:46:11.297Z,97898.94
2022-11-20T02:48:37.813Z,97892.03
2022-11-20T02:51:04.314Z,97893.63
2022-11-20T02:53:30.787Z,97897.94
2022-11-20T02:55:57.306Z,97899.19
2022-11-20T02:58:23.797Z,97897.34
2022-11-20T03:00:50.252Z,97893.88
2022-11-20T03:03:16.796Z,97891.75
2022-11-20T03:05:43.276Z,97888.28
2022-11-20T03:08:09.746Z,97889.06
2022-11-20T03:10:36.220Z,97884.03
2022-11-20T03:13:02.704Z,97874.72
2022-11-20T03:15:29.174Z,97877.91
2022-11-20T03:17:56.350Z,97876.31
2022-11-20T03:20:23.202Z,97869.13
2022-11-20T03:22:49.706Z,97861.41
2022-11-20T03:25:16.164Z,97864.59
2022-11-20T03:27:42.638Z,97872.81
2022-11-20T03:30:09.713Z,97869.63
2022-11-20T03:32:36.195Z,97874.66
2022-11-20T03:35:02.834Z,97868.56
2022-11-20T03:37:29.517Z,97863.25
2022-11-20T03:39:55.973Z,97861.09
2022-11-20T03:42:41.145Z,97862.16
2022-11-20T03:45:08.065Z,97855.78
2022-11-20T03:47:34.535Z,97852.59
2022-11-20T03:50:00.991Z,97853.91
2022-11-20T03:52:27.454Z,97852.31
2022-11-20T03:54:54.007Z,97856.28
2022-11-20T03:57:20.476Z,97859.75
2022-11-20T03:59:46.948Z,97853.88
2022-11-20T04:02:13.471Z,97862.09
2022-11-20T04:04:39.966Z,97854.94
2022-11-20T04:07:06.493Z,97860.75
2022-11-20T04:09:32.985Z,97854.13
2022-11-20T04:11:59.450Z,97855.19
2022-11-20T04:14:25.999Z,97846.94
2022-11-20T04:16:52.458Z,97854.09
2022-11-20T04:19:19.359Z,97845.84
2022-11-20T04:21:46.255Z,97852.22
2022-11-20T04:24:13.802Z,97849.53
2022-11-20T04:26:40.304Z,97848.75
2022-11-20T04:29:06.793Z,97856.16
2022-11-20T04:31:34.618Z,97855.63
2022-11-20T04:34:04.820Z,97849.22
2022-11-20T04:36:31.428Z,97855.31
2022-11-20T04:38:59.098Z,97853.94
2022-11-20T04:41:27.559Z,97857.16
2022-11-20T04:43:59.897Z,97856.41
2022-11-20T04:46:26.938Z,97852.22
2022-11-20T04:48:53.466Z,97849.09
2022-11-20T04:51:20.004Z,97841.13
2022-11-20T04:53:46.486Z,97845.66
2022-11-20T04:56:13.133Z,97841.97
2022-11-20T04:58:40.210Z,97836.09
2022-11-20T05:01:08.217Z,97841.16
2022-11-20T05:03:38.445Z,97836.66
2022-11-20T05:06:07.987Z,97836.91
2022-11-20T05:08:34.490Z,97837.72
2022-11-20T05:11:11.761Z,97822.81
2022-11-20T05:13:38.318Z,97835.28
2022-11-20T05:16:12.439Z,97829.72
2022-11-20T05:18:38.938Z,97832.91
2022-11-20T05:21:05.682Z,97823.06
2022-11-20T05:23:32.291Z,97823.06
2022-11-20T05:25:59.503Z,97831.03
2022-11-20T05:28:26.756Z,97827.03
2022-11-20T05:30:53.216Z,97827.56
2022-11-20T05:33:19.819Z,97828.06
2022-11-20T05:35:46.609Z,97837.38
2022-11-20T05:38:13.417Z,97831.50
2022-11-20T05:40:40.129Z,97836.50
2022-11-20T05:43:06.597Z,97839.69
2022-11-20T05:45:33.059Z,97834.63
2022-11-20T05:48:01.126Z,97837.34
2022-11-20T05:50:30.671Z,97840.81
2022-11-20T05:53:00.347Z,97844.28
2022-11-20T05:55:27.541Z,97839.78
2022-11-20T05:57:55.648Z,97840.56
2022-11-20T06:00:22.214Z,97846.66
2022-11-20T06:02:48.716Z,97843.50
2022-11-20T06:05:15.296Z,97842.94
2022-11-20T06:07:41.815Z,97837.09
2022-11-20T06:10:08.597Z,97841.59
2022-11-20T06:12:35.127Z,97839.25
2022-11-20T06:15:01.845Z,97839.78
2022-11-20T06:17:28.308Z,97830.53
2022-11-20T06:19:54.773Z,97828.91
2022-11-20T06:22:21.226Z,97825.72
2022-11-20T06:24:47.707Z,97835.03
2022-11-20T06:27:14.149Z,97833.44
2022-11-20T06:29:40.657Z,97835.59
2022-11-20T06:32:07.143Z,97824.16
2022-11-20T06:34:33.643Z,97820.16
2022-11-20T06:37:00.106Z,97821.50
2022-11-20T06:39:26.582Z,97814.59
2022-11-20T06:41:58.338Z,97816.19
2022-11-20T06:44:25.543Z,97816.97
2022-11-20T06:46:51.998Z,97809.53
2022-11-20T06:49:18.495Z,97804.78
2022-11-20T06:51:45.064Z,97812.19
2022-11-20T06:54:11.537Z,97806.06
2022-11-20T06:56:37.989Z,97814.03
2022-11-20T06:59:07.915Z,97808.72
2022-11-20T07:01:34.497Z,97810.06
2022-11-20T07:04:00.967Z,97804.75
2022-11-20T07:06:27.462Z,97810.31
2022-11-20T07:08:53.940Z,97814.03
2022-11-20T07:11:20.428Z,97815.34
2022-11-20T07:13:46.913Z,97806.03
2022-11-20T07:16:13.435Z,97809.75
2022-11-20T07:18:39.927Z,97816.94
2022-11-20T07:21:07.910Z,97821.69
2022-11-20T07:23:34.402Z,97826.47
2022-11-20T07:26:07.682Z,97829.38
2022-11-20T07:28:34.434Z,97834.41
2022-11-20T07:31:00.962Z,97832.28
2022-11-20T07:33:27.488Z,97834.41
2022-11-20T07:35:53.989Z,97832.06
2022-11-20T07:38:20.486Z,97836.34
2022-11-20T07:40:46.951Z,97832.94
2022-11-20T07:43:13.401Z,97838.03
2022-11-20T07:45:39.871Z,97844.44
2022-11-20T07:48:06.352Z,97838.09
2022-11-20T07:50:32.836Z,97845.03
2022-11-20T07:53:05.559Z,97832.31
2022-11-20T07:55:32.138Z,97838.44
2022-11-20T07:57:59.382Z,97841.13
2022-11-20T08:00:26.834Z,97842.16
2022-11-20T08:02:53.530Z,97844.06
2022-11-20T08:05:20.085Z,97844.84
2022-11-20T08:07:46.900Z,97840.31
2022-11-20T08:10:15.128Z,97849.88
2022-11-20T08:13:06.281Z,97841.41
2022-11-20T08:15:32.958Z,97834.72
2022-11-20T08:18:29.461Z,97837.38
2022-11-20T08:20:50.384Z,97830.75
2022-11-20T08:23:17.499Z,97832.59
2022-11-20T08:25:44.447Z,97835.53
2022-11-20T08:28:20.793Z,97833.13
2022-11-20T08:30:48.259Z,97828.09
2022-11-20T08:33:15.186Z,97830.22
2022-11-20T08:35:42.728Z,97838.44
2022-11-20T08:38:11.856Z,97835.47
2022-11-20T08:40:38.371Z,97825.63
2022-11-20T08:43:07.622Z,97820.84
2022-11-20T08:45:35.415Z,97829.63
2022-11-20T08:48:05.535Z,97827.19
2022-11-20T08:50:33.119Z,97837.59
2022-11-20T08:53:06.308Z,97835.19
2022-11-20T08:55:33.086Z,97829.28
2022-11-20T08:57:59.550Z,97825.03
2022-11-20T09:00:26.039Z,97836.47
2022-11-20T09:02:53.205Z,97821.31
2022-11-20T09:05:19.669Z,97834.63
2022-11-20T09:07:46.148Z,97831.69
2022-11-20T09:10:28.175Z,97826.13
2022-11-20T09:12:55.956Z,97824.81
2022-11-20T09:15:22.744Z,97839.69
2022-11-20T09:17:59.457Z,97831.50
2022-11-20T09:20:26.528Z,97836.81
2022-11-20T09:22:52.998Z,97834.16
2022-11-20T09:25:19.514Z,97836.59
2022-11-20T09:27:47.029Z,97824.56
2022-11-20T09:30:14.957Z,97829.34
2022-11-20T09:32:41.420Z,97833.00
2022-11-20T09:35:08.809Z,97823.41
2022-11-20T09:37:35.481Z,97823.38
2022-11-20T09:40:02.076Z,97828.19
2022-11-20T09:42:40.032Z,97821.47
2022-11-20T09:45:31.196Z,97816.13
2022-11-20T09:48:19.483Z,97812.16
2022-11-20T09:51:33.876Z,97812.97
2022-11-20T09:54:18.824Z,97813.75
2022-11-20T09:56:48.385Z,97817.50
2022-11-20T09:59:30.018Z,97811.63
2022-11-20T10:01:56.735Z,97811.16
2022-11-20T10:04:24.099Z,97807.28
2022-11-20T10:07:48.220Z,97803.28
2022-11-20T10:10:18.276Z,97807.53
2022-11-20T10:13:19.766Z,97799.84
2022-11-20T10:16:15.299Z,97795.06
2022-11-20T10:19:14.055Z,97785.22
2022-11-20T10:21:52.706Z,97778.03
2022-11-20T10:24:30.837Z,97778.84
2022-11-20T10:27:10.995Z,97782.06
2022-11-20T10:29:38.049Z,97776.22
2022-11-20T10:32:10.812Z,97775.38
2022-11-20T10:34:49.233Z,97772.72
2022-11-20T10:37:28.937Z,97777.22
2022-11-20T10:40:00.643Z,97776.63
2022-11-20T10:42:35.788Z,97761.72
2022-11-20T10:45:22.501Z,97761.72
2022-11-20T10:47:49.032Z,97756.69
2022-11-20T10:50:21.879Z,97755.88
2022-11-20T10:53:04.017Z,97754.50
2022-11-20T10:55:54.651Z,97744.13
2022-11-20T10:58:27.194Z,97747.56
2022-11-20T11:00:53.764Z,97746.50
2022-11-20T11:03:28.366Z,97746.19
2022-11-20T11:06:09.066Z,97751.22
2022-11-20T11:08:38.327Z,97748.28
2022-11-20T11:11:27.540Z,97741.34
2022-11-20T11:13:54.051Z,97729.41
2022-11-20T11:16:22.573Z,97737.38
2022-11-20T11:18:49.069Z,97741.38
2022-11-20T11:21:22.395Z,97735.25
2022-11-20T11:23:49.472Z,97739.25
2022-11-20T11:26:23.295Z,97731.22
2022-11-20T11:29:02.135Z,97726.66
2022-11-20T11:31:32.733Z,97730.66
2022-11-20T11:34:15.491Z,97726.63
2022-11-20T11:36:42.318Z,97722.38
2022-11-20T11:39:14.022Z,97718.13
2022-11-20T11:41:40.480Z,97729.59
2022-11-20T11:44:42.945Z,97729.03
2022-11-20T11:47:19.773Z,97733.88
2022-11-20T11:49:46.492Z,97724.75
2022-11-20T11:52:20.416Z,97727.97
2022-11-20T11:54:51.259Z,97732.47
2022-11-20T11:57:27.568Z,97728.72
2022-11-20T12:00:13.626Z,97738.84
2022-11-20T12:02:50.726Z,97728.97
2022-11-20T12:05:23.039Z,97722.00
2022-11-20T12:08:12.804Z,97723.38
2022-11-20T12:10:57.994Z,97717.31
2022-11-20T12:13:45.774Z,97712.81
2022-11-20T12:16:15.908Z,97702.94
2022-11-20T12:18:42.881Z,97700.28
2022-11-20T12:21:22.304Z,97710.38
2022-11-20T12:23:59.657Z,97695.44
2022-11-20T12:26:54.013Z,97695.75
2022-11-20T12:29:23.765Z,97701.88
2022-11-20T12:32:06.369Z,97697.34
2022-11-20T12:34:45.884Z,97687.75
2022-11-20T12:37:37.963Z,97689.38
2022-11-20T12:40:37.442Z,97697.38
2022-11-20T12:43:31.702Z,97690.75
2022-11-20T12:46:19.959Z,97688.09
2022-11-20T12:49:15.399Z,97677.22
2022-11-20T12:51:50.928Z,97681.22
2022-11-20T12:54:58.939Z,97678.84
2022-11-20T12:57:48.398Z,97679.38
2022-11-20T13:00:24.210Z,97666.38
2022-11-20T13:02:53.581Z,97666.91
2022-11-20T13:05:28.849Z,97656.84
2022-11-20T13:07:55.613Z,97663.31
2022-11-20T13:10:40.378Z,97662.53
2022-11-20T13:13:20.256Z,97658.56
2022-11-20T13:16:14.559Z,97661.78
2022-11-20T13:18:43.386Z,97661.28
2022-11-20T13:21:23.640Z,97651.72
2022-11-20T13:23:50.112Z,97651.22
2022-11-20T13:26:23.666Z,97654.94
2022-11-20T13:29:25.661Z,97650.69
2022-11-20T13:31:52.147Z,97658.13
2022-11-20T13:34:26.902Z,97655.25
2022-11-20T13:36:57.708Z,97646.47
2022-11-20T13:39:28.483Z,97647.53
2022-11-20T13:42:02.074Z,97646.22
2022-11-20T13:44:45.590Z,97645.19
2022-11-20T13:47:22.020Z,97633.75
2022-11-20T13:49:49.296Z,97625.28
2022-11-20T13:52:43.595Z,97622.09
2022-11-20T13:55:25.197Z,97618.41
2022-11-20T13:57:55.149Z,97620.50
2022-11-20T14:00:22.969Z,97618.41
2022-11-20T14:03:13.262Z,97616.56
2022-11-20T14:05:41.197Z,97618.94
2022-11-20T14:08:08.124Z,97613.09
2022-11-20T14:10:34.622Z,97611.50
2022-11-20T14:13:11.242Z,97604.31
2022-11-20T14:15:44.676Z,97603.28
2022-11-20T14:18:22.724Z,97603.81
2022-11-20T14:20:49.215Z,97606.44
2022-11-20T14:23:29.981Z,97605.59
2022-11-20T14:25:56.816Z,97602.88
2022-11-20T14:28:31.029Z,97601.25
2022-11-20T14:30:57.588Z,97591.97
2022-11-20T14:33:27.550Z,97592.75
2022-11-20T14:35:55.342Z,97590.03
2022-11-20T14:38:25.634Z,97580.97
2022-11-20T14:40:52.150Z,97582.78
2022-11-20T14:43:26.554Z,97585.94
2022-11-20T14:46:06.673Z,97585.28
2022-11-20T14:48:45.289Z,97579.47
2022-11-20T14:51:12.452Z,97571.22
2022-11-20T14:53:38.907Z,97565.91
2022-11-20T14:56:05.452Z,97567.75
2022-11-20T14:58:34.176Z,97567.47
2022-11-20T15:01:02.790Z,97565.03
2022-11-20T15:03:39.684Z,97561.84
2022-11-20T15:06:11.972Z,97557.03
2022-11-20T15:08:38.481Z,97557.28
2022-11-20T15:11:19.208Z,97552.97
2022-11-20T15:13:45.675Z,97546.03
2022-11-20T15:16:19.115Z,97545.00
2022-11-20T15:18:45.674Z,97546.00
2022-11-20T15:21:13.429Z,97542.56
2022-11-20T15:23:39.924Z,97545.69
2022-11-20T15:26:06.983Z,97556.31
2022-11-20T15:28:45.869Z,97552.09
2022-11-20T15:31:16.560Z,97541.38
2022-11-20T15:33:43.494Z,97537.28
2022-11-20T15:36:10.307Z,97538.38
2022-11-20T15:38:37.020Z,97530.38
2022-11-20T15:41:03.676Z,97527.22
2022-11-20T15:43:30.143Z,97519.72
2022-11-20T15:46:00.697Z,97525.56
2022-11-20T15:48:32.424Z,97518.38
2022-11-20T15:51:07.517Z,97518.88
2022-11-20T15:53:33.992Z,97533.53
2022-11-20T15:56:00.476Z,97528.66
2022-11-20T15:58:27.621Z,97527.09
2022-11-20T16:00:54.135Z,97527.09
2022-11-20T16:03:20.645Z,97522.06
2022-11-20T16:05:47.540Z,97522.00
2022-11-20T16:08:14.045Z,97525.16
2022-11-20T16:10:40.688Z,97509.22
2022-11-20T16:13:36.905Z,97501.53
2022-11-20T16:16:06.815Z,97506.84
2022-11-20T16:18:33.663Z,97504.69
2022-11-20T16:21:00.218Z,97504.94
2022-11-20T16:23:26.701Z,97502.50
2022-11-20T16:25:53.256Z,97501.84
2022-11-20T16:28:20.468Z,97495.06
2022-11-20T16:30:47.108Z,97498.53
2022-11-20T16:33:15.112Z,97490.19
2022-11-20T16:35:41.714Z,97492.88
2022-11-20T16:38:08.204Z,97493.13
2022-11-20T16:40:34.705Z,97485.44
2022-11-20T16:43:08.247Z,97476.34
2022-11-20T16:45:34.727Z,97485.06
2022-11-20T16:48:01.555Z,97475.38
2022-11-20T16:50:28.082Z,97469.84
2022-11-20T16:52:54.558Z,97462.75
2022-11-20T16:55:21.012Z,97460.97
2022-11-20T16:57:47.488Z,97457.13
2022-11-20T17:00:14.573Z,97452.09
2022-11-20T17:02:41.059Z,97449.19
2022-11-20T17:05:07.692Z,97440.06
2022-11-20T17:07:34.267Z,97441.69
2022-11-20T17:10:01.057Z,97443.31
2022-11-20T17:12:27.604Z,97436.59
2022-11-20T17:14:54.075Z,97430.91
2022-11-20T17:17:20.562Z,97411.97
2022-11-20T17:19:47.042Z,97427.84
2022-11-20T17:22:13.533Z,97423.78
2022-11-20T17:24:39.997Z,97427.34
2022-11-20T17:27:06.473Z,97413.19
2022-11-20T17:29:33.908Z,97410.31
2022-11-20T17:32:03.140Z,97419.34
2022-11-20T17:34:29.631Z,97415.44
2022-11-20T17:36:56.120Z,97420.31
2022-11-20T17:39:22.581Z,97408.94
2022-11-20T17:42:09.016Z,97407.91
2022-11-20T17:44:35.546Z,97411.38
2022-11-20T17:47:02.108Z,97397.19
2022-11-20T17:49:28.602Z,97400.84
2022-11-20T17:51:55.246Z,97398.97
2022-11-20T17:54:21.998Z,97403.81
2022-11-20T17:57:23.702Z,97399.63
2022-11-20T17:59:50.166Z,97398.25
2022-11-20T18:02:16.821Z,97388.25
2022-11-20T18:04:43.364Z,97382.56
2022-11-20T18:07:09.936Z,97377.81
2022-11-20T18:09:36.548Z,97378.31
2022-11-20T18:12:03.179Z,97370.59
2022-11-20T18:14:32.740Z,97374.41
2022-11-20T18:17:10.791Z,97375.22
2022-11-20T18:19:55.261Z,97369.88
2022-11-20T18:22:29.025Z,97365.94
2022-11-20T18:24:55.496Z,97356.63
2022-11-20T18:27:23.087Z,97352.69
2022-11-20T18:29:51.864Z,97355.06
2022-11-20T18:32:19.763Z,97341.72
2022-11-20T18:34:46.241Z,97339.28
2022-11-20T18:37:15.234Z,97343.09
2022-11-20T18:39:41.976Z,97335.53
2022-11-20T18:42:36.180Z,97337.75
2022-11-20T18:45:04.457Z,97334.03
2022-11-20T18:47:32.025Z,97335.38
2022-11-20T18:49:59.586Z,97333.09
2022-11-20T18:52:34.549Z,97333.09
2022-11-20T18:55:04.707Z,97335.78
2022-11-20T18:57:31.542Z,97340.31
2022-11-20T19:00:06.516Z,97337.59
2022-11-20T19:02:39.618Z,97339.78
2022-11-20T19:05:08.062Z,97336.47
2022-11-20T19:07:34.716Z,97332.00
2022-11-20T19:10:03.981Z,97327.88
2022-11-20T19:12:30.937Z,97317.13
2022-11-20T19:14:57.893Z,97316.00
2022-11-20T19:17:24.479Z,97296.63
2022-11-20T19:19:51.375Z,97305.25
2022-11-20T19:22:17.912Z,97296.69
2022-11-20T19:24:44.378Z,97293.84
2022-11-20T19:27:10.931Z,97307.09
2022-11-20T19:29:37.399Z,97298.72
2022-11-20T19:32:04.476Z,97294.59
2022-11-20T19:34:31.223Z,97284.59
2022-11-20T19:36:57.955Z,97279.84
2022-11-20T19:39:24.678Z,97275.72
2022-11-20T19:41:51.375Z,97270.09
2022-11-20T19:44:18.189Z,97265.47
2022-11-20T19:46:44.734Z,97262.97
2022-11-20T19:49:12.846Z,97261.09
2022-11-20T19:51:53.014Z,97255.38
2022-11-20T19:54:19.559Z,97252.97
2022-11-20T19:56:47.231Z,97248.25
2022-11-20T19:59:14.095Z,97243.19
2022-11-20T20:01:40.736Z,97234.91
2022-11-20T20:04:07.311Z,97237.28
2022-11-20T20:06:34.994Z,97233.13
2022-11-20T20:09:09.759Z,97230.75
2022-11-20T20:11:36.594Z,97223.44
2022-11-20T20:14:07.289Z,97221.84
2022-11-20T20:16:34.355Z,97223.56
2022-11-20T20:19:01.777Z,97219.47
2022-11-20T20:21:28.345Z,97215.72
2022-11-20T20:23:55.104Z,97216.22
2022-11-20T20:26:22.608Z,97209.22
2022-11-20T20:28:49.279Z,97206.53
2022-11-20T20:31:18.084Z,97203.16
2022-11-20T20:33:44.740Z,97202.09
2022-11-20T20:36:12.597Z,97192.00
2022-11-20T20:38:39.225Z,97190.91
2022-11-20T20:41:05.721Z,97186.78
2022-11-20T20:43:52.182Z,97177.56
2022-11-20T20:46:18.688Z,97177.00
2022-11-20T20:48:46.339Z,97166.13
2022-11-20T20:51:15.577Z,97167.41
2022-11-20T20:53:42.055Z,97163.06
2022-11-20T20:58:36.025Z,97163.84
2022-11-20T21:01:07.226Z,97155.28
2022-11-20T21:03:34.088Z,97144.78
2022-11-20T21:06:00.657Z,97157.72
2022-11-20T21:08:28.315Z,97150.31
2022-11-20T21:10:56.413Z,97147.94
2022-11-20T21:13:23.301Z,97137.28
2022-11-20T21:15:50.673Z,97143.59
2022-11-20T21:18:18.233Z,97132.72
2022-11-20T21:21:03.363Z,97135.41
2022-11-20T21:23:29.840Z,97135.94
2022-11-20T21:25:56.407Z,97122.91
2022-11-20T21:28:22.955Z,97123.50
2022-11-20T21:30:49.402Z,97117.38
2022-11-20T21:33:15.946Z,97112.66
2022-11-20T21:35:42.467Z,97114.22
2022-11-20T21:38:08.941Z,97103.25
2022-11-20T21:40:35.409Z,97104.16
2022-11-20T21:43:01.902Z,97102.47
2022-11-20T21:45:28.454Z,97100.59
2022-11-20T21:47:54.983Z,97096.47
2022-11-20T21:50:22.171Z,97093.63
2022-11-20T21:52:48.650Z,97091.63
2022-11-20T21:55:15.274Z,97087.88
2022-11-20T21:57:41.750Z,97083.94
2022-11-20T22:00:08.962Z,97083.94
2022-11-20T22:02:35.420Z,97080.94
2022-11-20T22:05:01.900Z,97080.16
2022-11-20T22:07:28.390Z,97074.63
2022-11-20T22:09:54.930Z,97073.84
2022-11-20T22:12:22.422Z,97067.72
2022-11-20T22:14:48.975Z,97064.56
2022-11-20T22:17:15.503Z,97056.84
2022-11-20T22:19:42.027Z,97059.53
2022-11-20T22:22:08.490Z,97052.13
2022-11-20T22:24:34.971Z,97057.47
2022-11-20T22:27:01.463Z,97053.72
2022-11-20T22:29:28.013Z,97054.59
2022-11-20T22:31:54.650Z,97055.38
2022-11-20T22:34:21.451Z,97056.59
2022-11-20T22:36:48.158Z,97053.31
2022-11-20T22:39:14.907Z,97054.00
2022-11-20T22:41:41.473Z,97055.59
2022-11-20T22:44:08.005Z,97053.19
2022-11-20T22:46:35.888Z,97054.88
2022-11-20T22:49:04.465Z,97054.88
2022-11-20T22:51:35.438Z,97045.63
2022-11-20T22:54:03.425Z,97058.94
2022-11-20T22:56:30.057Z,97055.81
2022-11-20T22:58:56.554Z,97055.50
2022-11-20T23:01:24.646Z,97061.72
2022-11-20T23:03:52.737Z,97063.09
2022-11-20T23:06:19.558Z,97061.53
2022-11-20T23:08:46.224Z,97059.91
2022-11-20T23:11:19.827Z,97054.88
2022-11-20T23:13:47.152Z,97054.88
2022-11-20T23:16:18.031Z,97057.03
2022-11-20T23:18:44.621Z,97060.03
2022-11-20T23:21:13.674Z,97067.25
2022-11-20T23:23:40.328Z,97061.13
2022-11-20T23:26:08.250Z,97064.38
2022-11-20T23:28:34.822Z,97070.47
2022-11-20T23:31:01.494Z,97072.66
2022-11-20T23:33:28.003Z,97080.16
2022-11-20T23:35:54.454Z,97083.13
2022-11-20T23:38:20.981Z,97082.63
2022-11-20T23:40:48.405Z,97079.47
2022-11-20T23:43:18.323Z,97089.78
2022-11-20T23:45:46.185Z,97086.66
2022-11-20T23:48:12.897Z,97077.38
2022-11-20T23:50:39.484Z,97089.53
2022-11-20T23:53:06.060Z,97086.38
2022-11-20T23:55:32.594Z,97087.75
2022-11-20T23:57:59.144Z,97081.63
